Caribbean Galaxy — 3EZV4 — position and weather

sailwx.info

Track history (hours):
 
Tides and Currents Weather Stations Pressure Air Temp Water Temp Dewpoint Dewpoint Depression Visibility Wind Speed Wind Dir Waves Ship Positions

Caribbean Galaxy

Last reported at 2018-Jan-29 12:30 UTC. Time now 2018-Feb-25 22:03 UTC.
Position N 01°40' E 102°54'.
Warning: this ship's position is 27 days out of date.

Length 245 m; draft 14.4 m.

Type: Ship (hazmat cat A). MMSI: 357449000.

Date/timePositionNaut miles runAvg speedWind from/ knotsBaromVisibWave heightAir tempDewpointWater temp
2018-Jan-29 12:30N 01°40' E 102°54'1810.4
2018-Jan-29 10:47N 01°29' E 103°08'1811.7
2018-Jan-29 09:12N 01°17' E 103°22'212.3
2018-Jan-29 09:00N 01°15' E 103°24'611.8
2018-Jan-29 08:29N 01°13' E 103°30'511.6
2018-Jan-29 08:00N 01°12' E 103°35'610.2
2018-Jan-29 07:28N 01°11' E 103°40'5 9.7
2018-Jan-29 06:59N 01°09' E 103°44'4 8.2
2018-Jan-29 06:29N 01°11' E 103°48'4 7.7
2018-Jan-29 05:59N 01°12' E 103°52'4 8.8
2018-Jan-29 05:31N 01°14' E 103°55'5 9.5
2018-Jan-29 04:59N 01°15' E 104°00'  
2018-Jan-23 09:36N 23°42' E 122°26'112.1
2018-Jan-23 09:30N 23°43' E 122°26'612.3
2018-Jan-23 09:00N 23°49' E 122°28'612.4
2018-Jan-23 08:30N 23°55' E 122°30'612.2
2018-Jan-23 08:00N 24°00' E 122°32'612.0
2018-Jan-23 07:30N 24°06' E 122°34'611.8
2018-Jan-23 07:00N 24°12' E 122°36'611.7
2018-Jan-23 06:30N 24°17' E 122°38'611.1
2018-Jan-23 06:00N 24°23' E 122°39'510.7
2018-Jan-23 05:30N 24°28' E 122°41'610.9
2018-Jan-23 05:00N 24°33' E 122°42'611.2
2018-Jan-23 04:30N 24°39' E 122°44'611.5
2018-Jan-23 04:00N 24°44' E 122°45'611.8
2018-Jan-23 03:30N 24°50' E 122°47'612.1
2018-Jan-23 03:00N 24°56' E 122°48'612.1
2018-Jan-23 02:30N 25°02' E 122°50'612.1
2018-Jan-23 02:00N 25°07' E 122°53'612.4
2018-Jan-23 01:30N 25°13' E 122°56'713.3
2018-Jan-23 01:00N 25°19' E 122°58'  
Track history (hours):
 
Tides and Currents Weather Stations Pressure Air Temp Water Temp Dewpoint Dewpoint Depression Visibility Wind Speed Wind Dir Waves Ship Positions

Caribbean Galaxy

Last reported at 2018-Jan-29 12:30 UTC. Time now 2018-Feb-25 22:03 UTC.
Position N 01°40' E 102°54'.
Warning: this ship's position is 27 days out of date.

Length 245 m; draft 14.4 m.

Type: Ship (hazmat cat A). MMSI: 357449000.

Date/timePositionNaut miles runAvg speedWind from/ knotsBaromVisibWave heightAir tempDewpointWater temp
2018-Jan-29 12:30N 01°40' E 102°54'1810.4
2018-Jan-29 10:47N 01°29' E 103°08'1811.7
2018-Jan-29 09:12N 01°17' E 103°22'212.3
2018-Jan-29 09:00N 01°15' E 103°24'611.8
2018-Jan-29 08:29N 01°13' E 103°30'511.6
2018-Jan-29 08:00N 01°12' E 103°35'610.2
2018-Jan-29 07:28N 01°11' E 103°40'5 9.7
2018-Jan-29 06:59N 01°09' E 103°44'4 8.2
2018-Jan-29 06:29N 01°11' E 103°48'4 7.7
2018-Jan-29 05:59N 01°12' E 103°52'4 8.8
2018-Jan-29 05:31N 01°14' E 103°55'5 9.5
2018-Jan-29 04:59N 01°15' E 104°00'  
2018-Jan-23 09:36N 23°42' E 122°26'112.1
2018-Jan-23 09:30N 23°43' E 122°26'612.3
2018-Jan-23 09:00N 23°49' E 122°28'612.4
2018-Jan-23 08:30N 23°55' E 122°30'612.2
2018-Jan-23 08:00N 24°00' E 122°32'612.0
2018-Jan-23 07:30N 24°06' E 122°34'611.8
2018-Jan-23 07:00N 24°12' E 122°36'611.7
2018-Jan-23 06:30N 24°17' E 122°38'611.1
2018-Jan-23 06:00N 24°23' E 122°39'510.7
2018-Jan-23 05:30N 24°28' E 122°41'610.9
2018-Jan-23 05:00N 24°33' E 122°42'611.2
2018-Jan-23 04:30N 24°39' E 122°44'611.5
2018-Jan-23 04:00N 24°44' E 122°45'611.8
2018-Jan-23 03:30N 24°50' E 122°47'612.1
2018-Jan-23 03:00N 24°56' E 122°48'612.1
2018-Jan-23 02:30N 25°02' E 122°50'612.1
2018-Jan-23 02:00N 25°07' E 122°53'612.4
2018-Jan-23 01:30N 25°13' E 122°56'713.3
2018-Jan-23 01:00N 25°19' E 122°58'  

Dump ship's entire track history